Time;durP1;ratioP1;P1;durP2;ratioP2;P2;SDS_P1;SDS_P2;PMS_P1;PMS_P2;Temp;Humidity;BMP_temperature;BMP_pressure;BME280_temperature;BME280_humidity;BME280_pressure;Samples;Min_cycle;Max_cycle;Signal;HPM_P1;HPM_P2
2022/06/18 00:02:02;;;;;;;2.30;2.10;;;;;;;;;;5041578;28;20964;-81
2022/06/18 00:04:29;;;;;;;2.30;2.10;;;;;;;;;;5036601;28;20988;-80
2022/06/18 00:06:57;;;;;;;2.30;2.10;;;;;;;;;;5041000;28;20466;-82
2022/06/18 00:09:26;;;;;;;2.20;2.10;;;;;;;;;;5041884;28;20461;-82
2022/06/18 00:14:40;;;;;;;2.10;1.90;;;;;;;;;;5040759;28;20539;-81
2022/06/18 00:17:10;;;;;;;2.50;2.17;;;;;;;;;;5035457;28;20948;-80
2022/06/18 00:19:37;;;;;;;2.60;2.40;;;;;;;;;;5037957;28;20970;-81
2022/06/18 00:22:04;;;;;;;2.37;1.97;;;;;;;;;;5046555;28;20527;-82
2022/06/18 00:24:31;;;;;;;2.50;2.30;;;;;;;;;;5044253;28;20449;-81
2022/06/18 00:26:58;;;;;;;3.47;2.90;;;;;;;;;;5049062;28;20454;-82
2022/06/18 00:29:25;;;;;;;2.80;2.40;;;;;;;;;;5041703;28;20458;-82
2022/06/18 00:31:54;;;;;;;1.80;1.70;;;;;;;;;;5042262;28;20488;-83
2022/06/18 00:34:21;;;;;;;2.30;2.10;;;;;;;;;;5040914;28;20909;-81
2022/06/18 00:36:48;;;;;;;2.10;1.93;;;;;;;;;;5039334;28;20469;-81
2022/06/18 00:39:16;;;;;;;2.40;2.20;;;;;;;;;;5042601;28;20486;-81
2022/06/18 00:41:45;;;;;;;2.30;2.10;;;;;;;;;;5047667;28;20584;-80
2022/06/18 00:44:19;;;;;;;1.80;1.70;;;;;;;;;;5041019;28;20450;-80
2022/06/18 00:46:50;;;;;;;2.53;2.33;;;;;;;;;;5040350;28;21233;-80
2022/06/18 00:49:22;;;;;;;2.00;1.90;;;;;;;;;;5042835;28;20427;-80
2022/06/18 00:51:51;;;;;;;2.57;2.27;;;;;;;;;;5043381;28;20507;-82
2022/06/18 00:54:20;;;;;;;2.60;2.40;;;;;;;;;;5049770;28;20437;-82
2022/06/18 00:56:50;;;;;;;3.07;2.20;;;;;;;;;;5040827;28;20468;-83
2022/06/18 00:59:19;;;;;;;2.57;2.37;;;;;;;;;;5042308;28;20484;-82
2022/06/18 01:01:48;;;;;;;2.77;2.30;;;;;;;;;;5041644;28;21184;-83
2022/06/18 01:04:25;;;;;;;2.70;2.40;;;;;;;;;;5045706;28;20447;-83
2022/06/18 01:06:54;;;;;;;2.80;2.07;;;;;;;;;;5043007;28;20490;-83
2022/06/18 01:09:21;;;;;;;2.73;2.13;;;;;;;;;;5048034;28;20458;-84
2022/06/18 01:11:48;;;;;;;2.13;1.80;;;;;;;;;;5039234;28;20458;-83
2022/06/18 01:14:17;;;;;;;2.40;2.07;;;;;;;;;;5041635;28;20466;-84
2022/06/18 01:16:44;;;;;;;1.90;1.80;;;;;;;;;;5041367;28;20468;-83
2022/06/18 01:19:17;;;;;;;2.17;1.97;;;;;;;;;;5046881;28;20497;-85
2022/06/18 01:21:49;;;;;;;2.30;1.97;;;;;;;;;;5044671;28;20476;-83
2022/06/18 01:24:18;;;;;;;2.33;2.13;;;;;;;;;;5048924;28;20470;-84
2022/06/18 01:26:46;;;;;;;2.40;2.00;;;;;;;;;;5049468;28;20468;-83
2022/06/18 01:29:13;;;;;;;2.50;2.30;;;;;;;;;;5041110;28;20454;-84
2022/06/18 01:31:40;;;;;;;2.47;2.27;;;;;;;;;;5044158;28;20906;-84
2022/06/18 01:34:07;;;;;;;2.33;2.10;;;;;;;;;;5046053;28;20790;-83
2022/06/18 01:36:35;;;;;;;2.60;2.30;;;;;;;;;;5044302;28;20465;-83
2022/06/18 01:39:03;;;;;;;2.80;2.50;;;;;;;;;;5037741;28;20889;-80
2022/06/18 01:41:52;;;;;;;2.27;2.00;;;;;;;;;;5042984;28;20836;-80
2022/06/18 01:44:21;;;;;;;2.23;2.07;;;;;;;;;;5048911;28;20461;-80
2022/06/18 01:46:51;;;;;;;2.40;2.20;;;;;;;;;;5046022;28;20899;-81
2022/06/18 01:49:20;;;;;;;2.33;2.13;;;;;;;;;;5047380;28;20461;-81
2022/06/18 01:51:50;;;;;;;2.20;2.00;;;;;;;;;;5043570;28;20450;-81
2022/06/18 01:54:18;;;;;;;2.13;2.03;;;;;;;;;;5052789;28;20940;-82
2022/06/18 01:56:47;;;;;;;4.07;2.17;;;;;;;;;;5042433;28;20484;-81
2022/06/18 01:59:16;;;;;;;2.83;2.17;;;;;;;;;;5048623;28;20535;-81
2022/06/18 02:01:44;;;;;;;1.97;1.87;;;;;;;;;;5041640;28;20466;-81
2022/06/18 02:04:12;;;;;;;2.53;2.27;;;;;;;;;;5043410;28;20949;-81
2022/06/18 02:06:39;;;;;;;2.83;2.43;;;;;;;;;;5037157;28;20466;-82
2022/06/18 02:09:08;;;;;;;2.30;1.83;;;;;;;;;;5049649;28;20945;-82
2022/06/18 02:11:35;;;;;;;2.17;1.97;;;;;;;;;;5044370;28;20449;-82
2022/06/18 02:14:06;;;;;;;2.57;2.37;;;;;;;;;;5040968;28;20453;-82
2022/06/18 02:16:36;;;;;;;2.27;2.07;;;;;;;;;;5049802;28;20569;-82
2022/06/18 02:19:03;;;;;;;2.47;2.23;;;;;;;;;;5033532;28;20967;-82
2022/06/18 02:21:32;;;;;;;2.70;1.93;;;;;;;;;;5032808;28;20962;-83
2022/06/18 02:24:00;;;;;;;2.03;1.87;;;;;;;;;;5035193;28;20528;-83
2022/06/18 02:26:29;;;;;;;2.97;1.80;;;;;;;;;;5040476;28;20949;-84
2022/06/18 02:28:56;;;;;;;1.97;1.80;;;;;;;;;;5052814;28;20448;-83
2022/06/18 02:31:26;;;;;;;2.27;2.07;;;;;;;;;;5036034;28;20466;-83
2022/06/18 02:33:55;;;;;;;2.97;1.70;;;;;;;;;;5033941;28;20442;-83
2022/06/18 02:36:23;;;;;;;3.93;1.80;;;;;;;;;;5040255;28;20469;-83
2022/06/18 02:38:52;;;;;;;1.90;1.70;;;;;;;;;;5043304;28;20485;-81
2022/06/18 02:41:19;;;;;;;1.87;1.77;;;;;;;;;;5041195;28;20812;-81
2022/06/18 02:43:47;;;;;;;2.43;2.10;;;;;;;;;;5048219;28;20512;-81
2022/06/18 02:46:14;;;;;;;3.27;2.43;;;;;;;;;;5041111;28;20809;-81
2022/06/18 02:48:43;;;;;;;2.47;1.70;;;;;;;;;;5053344;28;20940;-84
2022/06/18 02:51:11;;;;;;;2.07;1.87;;;;;;;;;;5039706;28;20442;-84
2022/06/18 02:53:38;;;;;;;1.90;1.80;;;;;;;;;;5050458;28;20452;-82
2022/06/18 02:56:06;;;;;;;2.50;2.23;;;;;;;;;;5047878;28;20965;-83
2022/06/18 02:58:35;;;;;;;2.00;1.70;;;;;;;;;;5044989;28;20980;-83
2022/06/18 03:01:04;;;;;;;2.00;1.90;;;;;;;;;;5039578;28;20492;-79
2022/06/18 03:03:33;;;;;;;2.07;1.60;;;;;;;;;;5052767;28;20449;-82
2022/06/18 03:06:01;;;;;;;1.90;1.80;;;;;;;;;;5037558;28;20519;-82
2022/06/18 03:08:29;;;;;;;1.80;1.70;;;;;;;;;;5047679;28;20489;-82
2022/06/18 03:13:41;;;;;;;1.83;1.73;;;;;;;;;;5050068;28;20423;-83
2022/06/18 03:16:09;;;;;;;2.30;2.10;;;;;;;;;;5043941;28;20457;-82
2022/06/18 03:18:37;;;;;;;2.07;1.90;;;;;;;;;;5039681;28;20493;-80
2022/06/18 03:21:09;;;;;;;2.03;1.83;;;;;;;;;;5041288;28;20453;-82
2022/06/18 03:23:36;;;;;;;2.33;2.10;;;;;;;;;;5034732;28;20525;-81
2022/06/18 03:26:03;;;;;;;1.63;1.53;;;;;;;;;;5046663;28;20457;-82
2022/06/18 03:28:31;;;;;;;2.00;1.80;;;;;;;;;;5040640;28;20837;-82
2022/06/18 03:30:58;;;;;;;2.20;2.00;;;;;;;;;;5046974;28;20507;-82
2022/06/18 03:33:25;;;;;;;2.33;2.10;;;;;;;;;;5047799;28;20457;-81
2022/06/18 03:35:52;;;;;;;2.13;1.93;;;;;;;;;;5047141;28;20469;-82
2022/06/18 03:38:21;;;;;;;2.90;2.23;;;;;;;;;;5046024;28;20846;-81
2022/06/18 03:40:51;;;;;;;2.07;1.70;;;;;;;;;;5048283;28;20833;-82
2022/06/18 03:43:18;;;;;;;1.97;1.77;;;;;;;;;;5036120;28;20461;-82
2022/06/18 03:45:46;;;;;;;2.17;1.57;;;;;;;;;;5043289;28;20517;-82
2022/06/18 03:48:17;;;;;;;2.60;1.80;;;;;;;;;;5040707;28;20835;-84
2022/06/18 03:50:44;;;;;;;1.87;1.47;;;;;;;;;;5045833;28;20469;-84
2022/06/18 03:53:12;;;;;;;2.10;1.77;;;;;;;;;;5047026;28;20453;-84
2022/06/18 03:55:40;;;;;;;2.20;1.97;;;;;;;;;;5049462;28;20468;-83
2022/06/18 03:58:08;;;;;;;1.97;1.77;;;;;;;;;;5049711;28;20441;-83
2022/06/18 04:00:35;;;;;;;2.03;1.67;;;;;;;;;;5038466;28;20482;-83
2022/06/18 04:03:02;;;;;;;2.63;2.30;;;;;;;;;;5051016;28;20457;-82
2022/06/18 04:05:29;;;;;;;2.10;1.90;;;;;;;;;;5040459;28;20454;-81
2022/06/18 04:07:56;;;;;;;2.00;1.70;;;;;;;;;;5044655;28;20461;-80
2022/06/18 04:10:24;;;;;;;2.33;1.50;;;;;;;;;;5045893;28;20946;-83
2022/06/18 04:12:52;;;;;;;2.67;2.33;;;;;;;;;;5038500;28;20458;-83
2022/06/18 04:15:19;;;;;;;1.83;1.70;;;;;;;;;;5041150;28;20949;-83
2022/06/18 04:17:47;;;;;;;2.00;1.90;;;;;;;;;;5041967;28;20454;-83
2022/06/18 04:20:18;;;;;;;1.60;1.50;;;;;;;;;;5047329;28;20995;-82
2022/06/18 04:22:45;;;;;;;1.80;1.70;;;;;;;;;;5032603;28;20468;-83
2022/06/18 04:25:12;;;;;;;2.70;2.50;;;;;;;;;;5047034;28;20472;-82
2022/06/18 04:27:39;;;;;;;2.20;1.90;;;;;;;;;;5033833;28;20455;-83
2022/06/18 04:30:09;;;;;;;1.87;1.77;;;;;;;;;;5040864;28;20507;-83
2022/06/18 04:32:37;;;;;;;2.10;1.60;;;;;;;;;;5037404;28;20466;-83
2022/06/18 04:35:04;;;;;;;2.00;1.80;;;;;;;;;;5042948;28;20477;-83
2022/06/18 04:37:31;;;;;;;1.83;1.60;;;;;;;;;;5043313;28;20531;-83
2022/06/18 04:39:58;;;;;;;1.90;1.73;;;;;;;;;;5045561;28;20481;-81
2022/06/18 04:42:26;;;;;;;1.67;1.50;;;;;;;;;;5042060;28;20854;-81
2022/06/18 04:44:53;;;;;;;2.00;1.83;;;;;;;;;;5048732;28;20832;-82
2022/06/18 04:47:21;;;;;;;2.70;1.60;;;;;;;;;;5038671;28;20861;-82
2022/06/18 04:49:48;;;;;;;2.83;2.00;;;;;;;;;;5047076;28;20806;-82
2022/06/18 04:52:15;;;;;;;1.73;1.63;;;;;;;;;;5043626;28;20961;-84
2022/06/18 04:54:42;;;;;;;1.53;1.43;;;;;;;;;;5045902;28;20457;-81
2022/06/18 04:57:09;;;;;;;1.70;1.60;;;;;;;;;;5034947;28;20466;-82
2022/06/18 04:59:38;;;;;;;2.73;2.53;;;;;;;;;;5047737;28;20844;-83
2022/06/18 05:02:07;;;;;;;2.07;1.70;;;;;;;;;;5051731;28;20460;-85
2022/06/18 05:04:35;;;;;;;1.67;1.57;;;;;;;;;;5048023;28;20515;-82
2022/06/18 05:07:02;;;;;;;1.60;1.50;;;;;;;;;;5040239;28;20469;-83
2022/06/18 05:09:29;;;;;;;1.90;1.70;;;;;;;;;;5047794;28;20441;-82
2022/06/18 05:11:56;;;;;;;1.90;1.67;;;;;;;;;;5041822;28;20462;-83
2022/06/18 05:14:23;;;;;;;1.90;1.70;;;;;;;;;;5047093;28;20972;-82
2022/06/18 05:16:50;;;;;;;1.70;1.60;;;;;;;;;;5040887;28;20462;-82
2022/06/18 05:19:23;;;;;;;1.60;1.50;;;;;;;;;;5044206;28;20477;-83
2022/06/18 05:21:51;;;;;;;2.27;2.07;;;;;;;;;;5044776;28;21072;-83
2022/06/18 05:24:18;;;;;;;1.60;1.50;;;;;;;;;;5040235;28;20477;-82
2022/06/18 05:26:47;;;;;;;1.50;1.40;;;;;;;;;;5038703;28;20453;-81
2022/06/18 05:29:14;;;;;;;2.13;1.93;;;;;;;;;;5045944;28;20470;-81
2022/06/18 05:31:41;;;;;;;1.67;1.57;;;;;;;;;;5048149;28;20461;-82
2022/06/18 05:34:08;;;;;;;2.00;1.87;;;;;;;;;;5045227;28;21164;-82
2022/06/18 05:36:35;;;;;;;1.80;1.50;;;;;;;;;;5044106;28;20803;-82
2022/06/18 05:39:04;;;;;;;1.83;1.70;;;;;;;;;;5045326;28;20810;-83
2022/06/18 05:41:31;;;;;;;1.60;1.50;;;;;;;;;;5041949;28;20477;-82
2022/06/18 05:43:58;;;;;;;2.00;1.80;;;;;;;;;;5050938;28;20824;-84
2022/06/18 05:46:25;;;;;;;1.73;1.63;;;;;;;;;;5043760;28;20462;-82
2022/06/18 05:48:53;;;;;;;1.60;1.40;;;;;;;;;;5047616;28;20803;-82
2022/06/18 05:51:20;;;;;;;1.60;1.50;;;;;;;;;;5046130;28;20485;-82
2022/06/18 05:53:48;;;;;;;2.07;1.70;;;;;;;;;;5048577;28;20445;-82
2022/06/18 05:56:16;;;;;;;2.20;1.57;;;;;;;;;;5034561;28;20496;-84
2022/06/18 05:58:43;;;;;;;2.00;1.80;;;;;;;;;;5039034;28;20466;-84
2022/06/18 06:01:10;;;;;;;2.20;1.73;;;;;;;;;;5044553;28;20485;-83
2022/06/18 06:03:37;;;;;;;2.27;1.30;;;;;;;;;;5050073;28;20466;-84
2022/06/18 06:06:04;;;;;;;1.60;1.50;;;;;;;;;;5043388;28;20887;-82
2022/06/18 06:08:32;;;;;;;1.80;1.70;;;;;;;;;;5049187;28;20829;-81
2022/06/18 06:13:45;;;;;;;3.50;1.73;;;;;;;;;;5050538;28;20436;-81
2022/06/18 06:16:12;;;;;;;2.80;1.60;;;;;;;;;;5034429;28;20873;-82
2022/06/18 06:18:39;;;;;;;1.50;1.40;;;;;;;;;;5041478;28;20466;-82
2022/06/18 06:21:06;;;;;;;2.07;1.60;;;;;;;;;;5037523;28;20482;-81
2022/06/18 06:23:33;;;;;;;1.53;1.43;;;;;;;;;;5042676;28;20466;-83
2022/06/18 06:26:00;;;;;;;1.60;1.27;;;;;;;;;;5051313;28;20465;-82
2022/06/18 06:28:29;;;;;;;1.70;1.60;;;;;;;;;;5043198;28;20495;-82
2022/06/18 06:30:58;;;;;;;1.83;1.70;;;;;;;;;;5034373;28;20457;-82
2022/06/18 06:33:25;;;;;;;1.70;1.60;;;;;;;;;;5041867;28;20800;-88
2022/06/18 06:35:52;;;;;;;1.83;1.33;;;;;;;;;;5044456;28;20469;-84
2022/06/18 06:38:20;;;;;;;1.70;1.50;;;;;;;;;;5045176;28;20453;-82
2022/06/18 06:40:48;;;;;;;2.10;1.60;;;;;;;;;;5053344;28;20477;-84
2022/06/18 06:43:15;;;;;;;1.30;1.20;;;;;;;;;;5038833;28;20933;-83
2022/06/18 06:45:43;;;;;;;1.43;1.33;;;;;;;;;;5039883;28;20469;-82
2022/06/18 06:48:11;;;;;;;2.40;1.40;;;;;;;;;;5050774;28;20925;-82
2022/06/18 06:50:38;;;;;;;1.50;1.40;;;;;;;;;;5050398;28;20437;-83
2022/06/18 06:53:06;;;;;;;2.33;1.50;;;;;;;;;;5046502;28;20464;-84
2022/06/18 06:58:19;;;;;;;2.03;1.53;;;;;;;;;;5049994;28;20821;-83
2022/06/18 07:00:47;;;;;;;1.60;1.50;;;;;;;;;;5040934;28;21043;-83
2022/06/18 07:03:16;;;;;;;2.13;1.40;;;;;;;;;;5044360;28;20555;-82
2022/06/18 07:05:44;;;;;;;1.57;1.40;;;;;;;;;;5036861;28;20489;-84
2022/06/18 07:08:12;;;;;;;2.40;1.87;;;;;;;;;;5039593;28;20953;-82
2022/06/18 07:10:39;;;;;;;1.70;1.60;;;;;;;;;;5046660;28;20932;-83
2022/06/18 07:13:07;;;;;;;1.63;1.40;;;;;;;;;;5048205;28;20837;-82
2022/06/18 07:15:34;;;;;;;2.53;1.50;;;;;;;;;;5042324;28;20466;-83
2022/06/18 07:18:03;;;;;;;1.90;1.70;;;;;;;;;;5042467;28;20496;-81
2022/06/18 07:20:32;;;;;;;2.60;2.03;;;;;;;;;;5039740;28;20482;-81
2022/06/18 07:22:59;;;;;;;2.77;1.30;;;;;;;;;;5050233;28;20461;-82
2022/06/18 07:25:26;;;;;;;3.30;1.70;;;;;;;;;;5040510;28;20457;-79
2022/06/18 07:27:54;;;;;;;2.07;1.43;;;;;;;;;;5046369;28;20971;-78
2022/06/18 07:30:22;;;;;;;2.13;1.80;;;;;;;;;;5047519;28;20461;-82
2022/06/18 07:32:50;;;;;;;1.70;1.60;;;;;;;;;;5041552;28;20481;-77
2022/06/18 07:35:19;;;;;;;2.73;1.53;;;;;;;;;;5041085;28;20879;-77
2022/06/18 07:37:48;;;;;;;4.40;1.80;;;;;;;;;;5042243;28;20465;-80
2022/06/18 07:40:15;;;;;;;2.20;1.80;;;;;;;;;;5051714;28;20481;-77
2022/06/18 07:42:43;;;;;;;4.40;2.17;;;;;;;;;;5045152;28;20496;-80
2022/06/18 07:45:15;;;;;;;2.07;1.67;;;;;;;;;;5043856;28;20461;-79
2022/06/18 07:47:42;;;;;;;4.40;1.80;;;;;;;;;;5043161;28;20541;-78
2022/06/18 07:50:10;;;;;;;1.97;1.60;;;;;;;;;;5048376;28;20526;-77
2022/06/18 07:52:37;;;;;;;5.33;1.63;;;;;;;;;;5040906;28;20461;-82
2022/06/18 07:55:06;;;;;;;2.40;1.83;;;;;;;;;;5046983;28;20458;-76
2022/06/18 07:57:33;;;;;;;2.80;2.47;;;;;;;;;;5051433;28;20802;-78
2022/06/18 08:00:00;;;;;;;3.00;1.93;;;;;;;;;;5034495;28;20539;-78
2022/06/18 08:02:27;;;;;;;2.40;1.57;;;;;;;;;;5037733;28;20469;-77
2022/06/18 08:04:54;;;;;;;2.87;2.00;;;;;;;;;;5037132;28;20888;-78
2022/06/18 08:07:21;;;;;;;3.37;2.00;;;;;;;;;;5046641;28;20463;-77
2022/06/18 08:09:48;;;;;;;1.93;1.83;;;;;;;;;;5042909;28;20465;-77
2022/06/18 08:12:17;;;;;;;2.00;1.90;;;;;;;;;;5037872;28;20905;-77
2022/06/18 08:14:44;;;;;;;1.57;1.47;;;;;;;;;;5031998;28;20461;-78
2022/06/18 08:17:11;;;;;;;2.97;2.10;;;;;;;;;;5046608;28;20465;-79
2022/06/18 08:19:38;;;;;;;2.50;2.00;;;;;;;;;;5040165;28;20834;-77
2022/06/18 08:22:05;;;;;;;2.70;1.57;;;;;;;;;;5041535;28;20449;-79
2022/06/18 08:24:32;;;;;;;3.40;2.50;;;;;;;;;;5048186;28;20541;-76
2022/06/18 08:26:59;;;;;;;3.67;2.33;;;;;;;;;;5050533;28;20978;-78
2022/06/18 08:29:28;;;;;;;2.47;1.70;;;;;;;;;;5034097;28;20516;-76
2022/06/18 08:31:55;;;;;;;2.70;1.90;;;;;;;;;;5042046;28;20936;-76
2022/06/18 08:34:23;;;;;;;3.10;1.60;;;;;;;;;;5035892;28;20450;-77
2022/06/18 08:36:50;;;;;;;2.37;1.90;;;;;;;;;;5038549;28;20560;-78
2022/06/18 08:39:17;;;;;;;4.10;1.93;;;;;;;;;;5048565;28;20441;-77
2022/06/18 08:41:54;;;;;;;3.77;1.97;;;;;;;;;;5048112;28;20488;-76
2022/06/18 08:44:27;;;;;;;2.13;1.80;;;;;;;;;;5047547;28;20468;-79
2022/06/18 08:47:03;;;;;;;2.03;1.83;;;;;;;;;;5040296;28;20465;-77
2022/06/18 08:49:40;;;;;;;3.43;2.23;;;;;;;;;;5043191;28;20458;-76
2022/06/18 08:52:14;;;;;;;1.80;1.70;;;;;;;;;;5037998;28;20453;-76
2022/06/18 08:54:45;;;;;;;3.77;2.23;;;;;;;;;;5046387;28;20484;-77
2022/06/18 08:57:15;;;;;;;3.00;2.20;;;;;;;;;;5050005;28;20448;-78
2022/06/18 08:59:48;;;;;;;2.60;2.03;;;;;;;;;;5043552;28;20455;-77
2022/06/18 09:02:22;;;;;;;4.03;2.47;;;;;;;;;;5045049;28;20446;-77
2022/06/18 09:04:55;;;;;;;5.10;2.50;;;;;;;;;;5036238;28;20455;-77
2022/06/18 09:07:31;;;;;;;7.27;4.00;;;;;;;;;;5040416;28;20456;-77
2022/06/18 09:10:05;;;;;;;3.37;2.20;;;;;;;;;;5045848;28;20460;-78
2022/06/18 09:12:34;;;;;;;2.97;2.17;;;;;;;;;;5037022;28;20526;-76
2022/06/18 09:15:04;;;;;;;3.40;1.80;;;;;;;;;;5039033;28;20449;-76
2022/06/18 09:17:35;;;;;;;3.40;2.13;;;;;;;;;;5030846;28;20457;-77
2022/06/18 09:20:05;;;;;;;6.23;3.50;;;;;;;;;;5038584;28;20477;-82
2022/06/18 09:22:34;;;;;;;3.60;2.50;;;;;;;;;;5036432;28;20511;-83
2022/06/18 09:25:03;;;;;;;2.50;2.23;;;;;;;;;;5038678;28;20453;-79
2022/06/18 09:27:36;;;;;;;5.67;2.83;;;;;;;;;;5040744;28;20456;-82
2022/06/18 09:30:06;;;;;;;5.43;2.93;;;;;;;;;;5032902;28;20469;-82
2022/06/18 09:32:37;;;;;;;2.27;2.07;;;;;;;;;;5029684;28;20505;-81
2022/06/18 09:35:06;;;;;;;4.47;2.20;;;;;;;;;;5037756;28;20483;-81
2022/06/18 09:37:37;;;;;;;2.60;2.07;;;;;;;;;;5038471;28;20982;-80
2022/06/18 09:40:05;;;;;;;7.77;3.03;;;;;;;;;;5040874;28;20503;-81
2022/06/18 09:42:36;;;;;;;4.40;2.40;;;;;;;;;;5047941;28;20473;-82
2022/06/18 09:45:06;;;;;;;6.43;2.47;;;;;;;;;;5036993;28;20518;-81
2022/06/18 09:47:37;;;;;;;5.07;2.67;;;;;;;;;;5039772;28;20446;-80
2022/06/18 09:50:05;;;;;;;3.00;1.90;;;;;;;;;;5039843;28;20465;-81
2022/06/18 09:52:33;;;;;;;5.43;2.70;;;;;;;;;;5044022;28;20502;-81
2022/06/18 09:55:13;;;;;;;2.90;2.17;;;;;;;;;;5041496;28;20461;-82
2022/06/18 09:57:42;;;;;;;9.30;4.40;;;;;;;;;;5043208;28;20964;-81
2022/06/18 10:00:11;;;;;;;2.53;2.30;;;;;;;;;;5044076;28;21015;-81
2022/06/18 10:02:43;;;;;;;2.57;2.37;;;;;;;;;;5041674;28;20515;-80
2022/06/18 10:08:00;;;;;;;7.37;2.57;;;;;;;;;;5037321;28;20817;-79
2022/06/18 10:10:29;;;;;;;3.60;2.47;;;;;;;;;;5039970;28;20445;-81
2022/06/18 10:12:58;;;;;;;4.93;3.27;;;;;;;;;;5035798;28;20469;-81
2022/06/18 10:15:27;;;;;;;3.10;2.20;;;;;;;;;;5039529;28;20457;-81
2022/06/18 10:18:00;;;;;;;5.30;2.20;;;;;;;;;;5038956;28;20552;-80
2022/06/18 10:20:33;;;;;;;3.50;2.30;;;;;;;;;;5044677;28;20457;-80
2022/06/18 10:23:03;;;;;;;5.00;2.60;;;;;;;;;;5039039;28;20461;-80
2022/06/18 10:25:32;;;;;;;4.90;2.90;;;;;;;;;;5038537;28;20481;-81
2022/06/18 10:28:04;;;;;;;4.47;3.27;;;;;;;;;;5037409;28;20453;-81
2022/06/18 10:30:35;;;;;;;8.67;3.07;;;;;;;;;;5037952;28;20885;-82
2022/06/18 10:33:06;;;;;;;8.93;3.20;;;;;;;;;;5038112;28;20461;-80
2022/06/18 10:35:40;;;;;;;5.80;2.80;;;;;;;;;;5044186;28;21042;-81
2022/06/18 10:38:18;;;;;;;3.47;2.00;;;;;;;;;;5037402;28;20465;-83
2022/06/18 10:40:47;;;;;;;4.53;2.53;;;;;;;;;;5043336;28;20488;-80
2022/06/18 10:43:19;;;;;;;4.03;2.70;;;;;;;;;;5042349;28;20493;-79
2022/06/18 10:45:49;;;;;;;5.80;2.80;;;;;;;;;;5034347;28;20459;-80
2022/06/18 10:48:19;;;;;;;4.40;3.07;;;;;;;;;;5045210;28;20956;-81
2022/06/18 10:50:47;;;;;;;7.63;2.80;;;;;;;;;;5041082;28;20956;-84
2022/06/18 10:53:16;;;;;;;7.40;3.40;;;;;;;;;;5036972;28;20497;-80
2022/06/18 10:55:44;;;;;;;4.27;3.03;;;;;;;;;;5038114;28;20857;-79
2022/06/18 10:58:12;;;;;;;6.30;3.10;;;;;;;;;;5049086;28;20457;-79
2022/06/18 11:00:40;;;;;;;3.10;2.80;;;;;;;;;;5034097;28;20466;-83
2022/06/18 11:03:18;;;;;;;3.33;2.33;;;;;;;;;;5037400;28;20470;-81
2022/06/18 11:05:47;;;;;;;5.20;3.20;;;;;;;;;;5034959;28;20519;-82
2022/06/18 11:08:22;;;;;;;4.30;2.47;;;;;;;;;;5035623;28;20543;-80
2022/06/18 11:10:51;;;;;;;6.90;3.43;;;;;;;;;;5029451;28;20988;-80
2022/06/18 11:13:20;;;;;;;9.27;2.83;;;;;;;;;;5041843;28;20457;-80
2022/06/18 11:15:48;;;;;;;4.63;2.90;;;;;;;;;;5038713;28;20450;-80
2022/06/18 11:18:16;;;;;;;4.63;2.77;;;;;;;;;;5033264;28;20961;-79
2022/06/18 11:20:56;;;;;;;5.43;2.60;;;;;;;;;;5048050;28;20461;-81
2022/06/18 11:23:23;;;;;;;5.83;3.50;;;;;;;;;;5037321;28;20524;-82
2022/06/18 11:25:52;;;;;;;3.83;3.40;;;;;;;;;;5047567;28;20452;-81
2022/06/18 11:28:21;;;;;;;5.57;3.40;;;;;;;;;;5039192;28;21225;-82
2022/06/18 11:30:49;;;;;;;6.83;2.93;;;;;;;;;;5038965;28;20469;-80
2022/06/18 11:33:22;;;;;;;4.43;3.00;;;;;;;;;;5046556;28;20546;-81
2022/06/18 11:35:50;;;;;;;7.53;3.07;;;;;;;;;;5042364;28;20817;-84
2022/06/18 11:38:22;;;;;;;4.63;2.73;;;;;;;;;;5031252;28;20861;-81
2022/06/18 11:40:53;;;;;;;4.13;2.73;;;;;;;;;;5029185;28;20509;-81
2022/06/18 11:43:30;;;;;;;11.90;4.40;;;;;;;;;;5037363;28;21082;-81
2022/06/18 11:46:00;;;;;;;4.90;3.37;;;;;;;;;;5038761;28;20465;-81
2022/06/18 11:48:31;;;;;;;4.13;3.00;;;;;;;;;;5039548;28;20833;-81
2022/06/18 11:51:01;;;;;;;5.63;2.97;;;;;;;;;;5040027;28;20457;-83
2022/06/18 11:53:33;;;;;;;5.33;3.03;;;;;;;;;;5037268;28;20457;-81
2022/06/18 11:56:00;;;;;;;11.80;3.97;;;;;;;;;;5040040;28;20845;-81
2022/06/18 11:58:30;;;;;;;7.03;2.80;;;;;;;;;;5036852;28;20484;-81
2022/06/18 12:00:59;;;;;;;9.27;3.63;;;;;;;;;;5038482;28;20991;-81
2022/06/18 12:03:29;;;;;;;5.77;3.20;;;;;;;;;;5045534;28;20903;-81
2022/06/18 12:05:59;;;;;;;3.83;2.73;;;;;;;;;;5038768;28;20454;-83
2022/06/18 12:08:26;;;;;;;3.97;2.97;;;;;;;;;;5035780;28;20458;-79
2022/06/18 12:10:59;;;;;;;6.10;3.07;;;;;;;;;;5040890;28;20462;-81
2022/06/18 12:13:28;;;;;;;7.93;3.53;;;;;;;;;;5035908;28;20967;-81
2022/06/18 12:16:00;;;;;;;3.73;2.70;;;;;;;;;;5039219;28;20498;-80
2022/06/18 12:18:30;;;;;;;5.90;3.13;;;;;;;;;;5045498;28;20450;-80
2022/06/18 12:21:18;;;;;;;7.03;3.23;;;;;;;;;;5034496;28;20442;-80
2022/06/18 12:23:49;;;;;;;4.70;2.80;;;;;;;;;;5038434;28;20466;-81
2022/06/18 12:26:20;;;;;;;4.37;2.47;;;;;;;;;;5042322;28;20887;-80
2022/06/18 12:28:53;;;;;;;5.17;3.30;;;;;;;;;;5039457;28;20968;-80
2022/06/18 12:31:24;;;;;;;9.20;3.43;;;;;;;;;;5039370;28;20485;-80
2022/06/18 12:33:55;;;;;;;6.20;2.70;;;;;;;;;;5042126;28;20531;-80
2022/06/18 12:36:29;;;;;;;5.90;3.33;;;;;;;;;;5037479;28;20469;-79
2022/06/18 12:39:00;;;;;;;7.37;3.90;;;;;;;;;;5029371;28;20473;-79
2022/06/18 12:41:39;;;;;;;3.67;2.90;;;;;;;;;;5043184;28;20876;-79
2022/06/18 12:44:12;;;;;;;5.43;3.30;;;;;;;;;;5043078;28;20461;-80
2022/06/18 12:46:43;;;;;;;3.10;2.80;;;;;;;;;;5040615;28;20472;-80
2022/06/18 12:49:13;;;;;;;5.97;3.03;;;;;;;;;;5040837;28;20453;-80
2022/06/18 12:51:43;;;;;;;14.37;4.03;;;;;;;;;;5030285;28;20458;-80
2022/06/18 12:54:16;;;;;;;5.83;3.27;;;;;;;;;;5042151;28;20442;-81
2022/06/18 12:56:49;;;;;;;5.03;3.60;;;;;;;;;;5034132;28;20581;-79
2022/06/18 12:59:20;;;;;;;3.50;2.20;;;;;;;;;;5045689;28;20492;-80
2022/06/18 13:01:52;;;;;;;7.87;3.60;;;;;;;;;;5033607;28;20485;-80
2022/06/18 13:04:26;;;;;;;6.80;3.00;;;;;;;;;;5047841;28;20793;-80
2022/06/18 13:06:56;;;;;;;3.43;2.40;;;;;;;;;;5035326;28;20465;-79
2022/06/18 13:09:31;;;;;;;4.57;2.87;;;;;;;;;;5034799;28;20442;-80
2022/06/18 13:12:08;;;;;;;5.53;2.70;;;;;;;;;;5044448;28;20455;-80
2022/06/18 13:14:42;;;;;;;5.60;3.20;;;;;;;;;;5046935;28;20446;-81
2022/06/18 13:17:13;;;;;;;5.67;3.07;;;;;;;;;;5037065;28;20467;-79
2022/06/18 13:19:43;;;;;;;4.80;2.80;;;;;;;;;;5045986;28;20560;-82
2022/06/18 13:22:10;;;;;;;5.47;3.03;;;;;;;;;;5032551;28;20873;-81
2022/06/18 13:30:20;;;;;;;7.97;3.27;;;;;;;;;;5039318;28;20465;-81
2022/06/18 13:32:50;;;;;;;5.43;2.87;;;;;;;;;;5046165;28;20469;-80
2022/06/18 13:35:22;;;;;;;3.50;2.40;;;;;;;;;;5046776;28;20458;-79
2022/06/18 13:37:52;;;;;;;11.50;3.13;;;;;;;;;;5043892;28;20477;-79
2022/06/18 13:40:25;;;;;;;6.33;2.87;;;;;;;;;;5043911;28;20811;-79
2022/06/18 13:43:00;;;;;;;5.83;3.10;;;;;;;;;;5041476;28;20496;-81
2022/06/18 13:45:34;;;;;;;6.00;3.57;;;;;;;;;;5035377;28;20470;-79
2022/06/18 13:48:10;;;;;;;6.00;3.70;;;;;;;;;;5051450;28;20449;-81
2022/06/18 13:50:44;;;;;;;6.67;3.20;;;;;;;;;;5050236;28;20591;-80
2022/06/18 13:53:22;;;;;;;8.77;3.70;;;;;;;;;;5042659;28;20445;-79
2022/06/18 13:55:49;;;;;;;7.23;3.97;;;;;;;;;;5035526;28;20547;-79
2022/06/18 13:58:19;;;;;;;4.00;2.73;;;;;;;;;;5042908;28;20460;-80
2022/06/18 14:00:47;;;;;;;5.73;3.03;;;;;;;;;;5044169;28;20466;-80
2022/06/18 14:03:18;;;;;;;3.00;2.50;;;;;;;;;;5054428;28;20477;-79
2022/06/18 14:05:47;;;;;;;8.43;3.30;;;;;;;;;;5038463;28;20537;-80
2022/06/18 14:08:22;;;;;;;9.50;3.43;;;;;;;;;;5049402;28;20465;-80
2022/06/18 14:10:49;;;;;;;4.77;2.53;;;;;;;;;;5035463;28;20794;-80
2022/06/18 14:13:21;;;;;;;7.30;3.13;;;;;;;;;;5040238;28;20460;-79
2022/06/18 14:15:58;;;;;;;6.23;3.33;;;;;;;;;;5041808;28;20488;-80
2022/06/18 14:18:25;;;;;;;6.73;2.90;;;;;;;;;;5049232;28;20484;-81
2022/06/18 14:21:01;;;;;;;9.77;3.80;;;;;;;;;;5042980;28;20450;-80
2022/06/18 14:23:32;;;;;;;5.83;2.50;;;;;;;;;;5045536;28;20469;-80
2022/06/18 14:26:02;;;;;;;5.10;3.00;;;;;;;;;;5048155;28;20461;-80
2022/06/18 14:28:32;;;;;;;6.70;3.20;;;;;;;;;;5048502;28;20944;-80
2022/06/18 14:31:05;;;;;;;5.47;3.27;;;;;;;;;;5038124;28;20462;-81
2022/06/18 14:33:36;;;;;;;7.00;3.30;;;;;;;;;;5050483;28;20457;-80
2022/06/18 14:36:06;;;;;;;7.27;3.23;;;;;;;;;;5052154;28;20474;-81
2022/06/18 14:38:34;;;;;;;9.70;3.10;;;;;;;;;;5044788;28;20806;-79
2022/06/18 14:43:50;;;;;;;4.37;2.93;;;;;;;;;;5048562;28;20497;-80
2022/06/18 14:46:24;;;;;;;5.90;3.30;;;;;;;;;;5046368;28;20801;-79
2022/06/18 14:49:05;;;;;;;10.67;4.10;;;;;;;;;;5042231;28;20978;-81
2022/06/18 14:51:50;;;;;;;7.90;3.50;;;;;;;;;;5024190;28;20821;-81
2022/06/18 14:54:30;;;;;;;4.87;3.27;;;;;;;;;;5042789;28;20449;-80
2022/06/18 14:57:16;;;;;;;6.87;3.03;;;;;;;;;;5042495;28;20825;-81
2022/06/18 15:00:02;;;;;;;17.37;4.37;;;;;;;;;;5041611;28;20469;-80
2022/06/18 15:02:33;;;;;;;5.50;3.87;;;;;;;;;;5045205;28;20992;-81
2022/06/18 15:05:00;;;;;;;7.73;3.50;;;;;;;;;;5040264;28;21004;-80
2022/06/18 15:07:31;;;;;;;5.70;2.87;;;;;;;;;;5039598;28;20935;-79
2022/06/18 15:10:04;;;;;;;4.90;3.10;;;;;;;;;;5055502;28;20453;-81
2022/06/18 15:12:31;;;;;;;9.10;2.87;;;;;;;;;;5043074;28;20949;-79
2022/06/18 15:15:01;;;;;;;6.30;3.07;;;;;;;;;;5038553;28;20515;-80
2022/06/18 15:17:34;;;;;;;5.50;3.13;;;;;;;;;;5045375;28;20809;-80
2022/06/18 15:20:19;;;;;;;7.97;3.50;;;;;;;;;;5044628;28;20458;-80